Dal'Nerechensk, Russia
Current Conditions -  °F | °C
As of 5:30 PM on Friday 24 Oct 2014 (Local Time) from UHHH Reporting Station
Broken Clouds Broken Clouds  
Wind Chill: 50°   Ceiling: 10000
Heat Index: 50°   Visibility: 6mi
Dew Point: 18°   Wind: 0mph
Humidity: 28%   Direction: NA
Pressure: 29.88"   Gusts: NA
Location:  45.87°N, 133.73°E
Report Text: UHHH 240730Z 00000MPS 9999 FEW033CB BKN100 10/M08 Q1012 NOSIGRMK QFE752/1003 23090060
Loading
Personal Weather Stations






























Interactive Weather Map
Tropical Storm Tracking
New forecast layout! Learn more

10-Day Weather Forecast

Advertisements
Track Severe Weather on mobile